Terminal Aerodrome Forecast
Issued by NWS Louisville, KY

Home | Current Version | Previous Version | Text Only | Print | Product List | Glossary On
Versions: 1 2 3 4 5 6 7 8 9 10 11 12 13
000
FTUS43 KLMK 010520
TAFSDF
TAF
KSDF 010520Z 0106/0212 13003KT P6SM SCT250
     FM011500 21007KT P6SM SCT050 BKN250
     FM012100 24007KT P6SM VCTS BKN050CB BKN250
     FM020200 26005KT P6SM BKN250=

USA.gov is the U.S. government's official web portal to all federal, state and local government web resources and services.